Time;durP1;ratioP1;P1;durP2;ratioP2;P2;SDS_P1;SDS_P2;PMS_P1;PMS_P2;Temp;Humidity;BMP_temperature;BMP_pressure;BME280_temperature;BME280_humidity;BME280_pressure;Samples;Min_cycle;Max_cycle;Signal;HPM_P1;HPM_P2
2021/06/18 00:00:22;;;;;;;2.90;0.70;;;15.10;99.90;;;;;;5094586;28;20187;-74
2021/06/18 00:02:50;;;;;;;1.43;1.00;;;15.20;99.90;;;;;;5094799;28;20557;-69
2021/06/18 00:05:18;;;;;;;1.37;0.80;;;15.30;99.90;;;;;;5089313;28;20257;-71
2021/06/18 00:07:49;;;;;;;0.87;0.60;;;15.40;99.90;;;;;;5077431;28;20171;-71
2021/06/18 00:10:20;;;;;;;4.33;0.80;;;15.50;99.90;;;;;;5094718;28;20178;-72
2021/06/18 00:12:47;;;;;;;1.27;0.70;;;15.60;99.90;;;;;;5095013;28;20173;-72
2021/06/18 00:15:18;;;;;;;1.90;0.70;;;15.60;99.90;;;;;;5094615;28;20175;-72
2021/06/18 00:17:46;;;;;;;2.70;1.00;;;15.70;99.90;;;;;;5094797;28;20179;-72
2021/06/18 00:20:14;;;;;;;1.20;0.80;;;15.80;99.90;;;;;;5094947;28;20226;-72
2021/06/18 00:22:42;;;;;;;3.00;0.60;;;15.80;99.90;;;;;;5088150;28;20673;-71
2021/06/18 00:25:11;;;;;;;0.70;0.60;;;15.80;99.90;;;;;;5092474;28;20262;-72
2021/06/18 00:27:38;;;;;;;1.83;0.63;;;15.90;99.90;;;;;;5094196;28;20171;-73
2021/06/18 00:30:08;;;;;;;2.03;0.67;;;15.90;99.90;;;;;;5094620;28;20271;-73
2021/06/18 00:32:35;;;;;;;3.00;0.67;;;16.00;99.80;;;;;;5093915;28;20214;-71
2021/06/18 00:35:04;;;;;;;1.37;0.70;;;15.90;99.60;;;;;;5093700;28;20195;-72
2021/06/18 00:37:33;;;;;;;1.43;0.80;;;16.00;99.30;;;;;;5094482;28;20281;-70
2021/06/18 00:40:00;;;;;;;4.03;1.30;;;16.00;99.20;;;;;;5094184;28;20178;-74
2021/06/18 00:42:27;;;;;;;2.67;0.87;;;16.10;99.60;;;;;;5093925;28;20211;-72
2021/06/18 00:44:55;;;;;;;3.30;1.20;;;16.20;99.50;;;;;;5093818;28;20178;-72
2021/06/18 00:47:24;;;;;;;0.83;0.70;;;16.20;99.60;;;;;;5094325;28;20232;-71
2021/06/18 00:49:53;;;;;;;2.83;0.87;;;16.20;99.20;;;;;;5093745;28;20181;-72
2021/06/18 00:52:21;;;;;;;1.27;0.80;;;16.40;99.40;;;;;;5092172;28;20193;-72
2021/06/18 00:54:50;;;;;;;3.60;0.90;;;16.40;99.40;;;;;;5094024;28;20185;-72
2021/06/18 00:57:18;;;;;;;7.27;1.00;;;16.60;99.20;;;;;;5093771;28;20279;-72
2021/06/18 00:59:46;;;;;;;3.63;0.90;;;16.70;99.30;;;;;;5093141;28;20230;-70
2021/06/18 01:02:13;;;;;;;6.03;1.10;;;16.70;98.00;;;;;;5093259;28;20571;-72
2021/06/18 01:04:42;;;;;;;1.13;0.77;;;16.60;98.00;;;;;;5093100;28;20186;-71
2021/06/18 01:07:18;;;;;;;1.93;0.50;;;16.60;98.10;;;;;;5093564;28;20175;-69
2021/06/18 01:10:21;;;;;;;1.47;0.60;;;16.70;98.10;;;;;;5094010;28;20208;-70
2021/06/18 01:13:20;;;;;;;2.90;0.63;;;16.80;97.90;;;;;;5073717;28;20210;-68
2021/06/18 01:16:09;;;;;;;5.25;0.70;;;16.90;97.80;;;;;;5092207;28;20419;-75
2021/06/18 01:18:58;;;;;;;1.23;0.70;;;17.00;97.90;;;;;;5091429;28;20194;-70
2021/06/18 01:21:47;;;;;;;4.10;0.93;;;17.10;97.40;;;;;;5087109;28;20658;-71
2021/06/18 01:24:23;;;;;;;0.80;0.60;;;17.30;97.80;;;;;;5082150;28;20194;-73
2021/06/18 01:27:18;;;;;;;3.37;0.60;;;17.30;96.90;;;;;;5087645;28;20599;-75
2021/06/18 01:30:14;;;;;;;0.70;0.50;;;17.50;97.30;;;;;;5092640;28;20208;-71
2021/06/18 01:32:47;;;;;;;1.27;0.80;;;17.60;96.50;;;;;;5084601;28;20230;-71
2021/06/18 01:35:18;;;;;;;0.60;0.50;;;17.60;96.60;;;;;;5088961;28;20262;-70
2021/06/18 01:37:57;;;;;;;1.17;0.70;;;17.70;96.20;;;;;;5091357;28;20183;-73
2021/06/18 01:40:27;;;;;;;0.80;0.60;;;17.70;96.00;;;;;;5092436;28;20209;-74
2021/06/18 01:42:57;;;;;;;0.60;0.50;;;17.80;96.10;;;;;;5092212;28;20220;-75
2021/06/18 01:45:26;;;;;;;2.20;0.43;;;17.70;96.00;;;;;;5092418;28;20646;-69
2021/06/18 01:47:56;;;;;;;1.20;0.50;;;17.80;95.80;;;;;;5091838;28;20208;-73
2021/06/18 01:50:26;;;;;;;2.60;0.50;;;17.90;96.00;;;;;;5084826;28;20193;-73
2021/06/18 01:53:04;;;;;;;1.20;0.53;;;18.00;95.80;;;;;;5091597;28;20190;-76
2021/06/18 01:55:34;;;;;;;0.60;0.40;;;18.20;95.50;;;;;;5092345;28;20231;-75
2021/06/18 01:58:04;;;;;;;1.00;0.60;;;18.30;95.10;;;;;;5092144;28;20257;-73
2021/06/18 02:00:35;;;;;;;2.20;0.53;;;18.30;95.30;;;;;;5089386;28;20182;-73
2021/06/18 02:03:08;;;;;;;2.23;0.50;;;18.30;95.00;;;;;;5091285;28;20580;-74
2021/06/18 02:05:37;;;;;;;0.30;0.30;;;18.40;95.00;;;;;;5088427;28;20190;-70
2021/06/18 02:08:07;;;;;;;1.20;0.37;;;18.40;94.80;;;;;;5092187;28;20595;-74
2021/06/18 02:10:36;;;;;;;0.93;0.50;;;18.60;94.80;;;;;;5091765;28;20193;-70
2021/06/18 02:13:07;;;;;;;0.63;0.40;;;18.60;94.60;;;;;;5087085;28;20193;-73
2021/06/18 02:15:40;;;;;;;0.63;0.40;;;18.50;94.50;;;;;;5091456;28;20207;-67
2021/06/18 02:18:16;;;;;;;0.80;0.40;;;18.80;94.30;;;;;;5091837;28;20306;-71
2021/06/18 02:20:45;;;;;;;0.70;0.50;;;19.00;93.90;;;;;;5089921;28;20179;-74
2021/06/18 02:23:15;;;;;;;2.50;0.40;;;19.00;93.70;;;;;;5095994;28;20245;-74
2021/06/18 02:25:43;;;;;;;0.50;0.30;;;19.10;92.80;;;;;;5091281;28;20186;-73
2021/06/18 02:28:11;;;;;;;2.37;0.47;;;19.20;92.80;;;;;;5092394;28;20247;-74
2021/06/18 02:30:39;;;;;;;0.83;0.43;;;19.30;92.70;;;;;;5092508;28;20181;-74
2021/06/18 02:33:13;;;;;;;0.43;0.40;;;18.80;92.50;;;;;;5090843;28;20632;-75
2021/06/18 02:35:42;;;;;;;0.30;0.30;;;18.60;92.30;;;;;;5093257;28;20198;-71
2021/06/18 02:38:12;;;;;;;0.60;0.40;;;18.20;92.70;;;;;;5102272;28;20587;-70
2021/06/18 02:40:40;;;;;;;1.63;1.00;;;18.10;93.00;;;;;;5099378;28;20641;-72
2021/06/18 02:43:08;;;;;;;4.17;0.50;;;17.80;93.20;;;;;;5092300;28;20217;-69
2021/06/18 02:45:37;;;;;;;2.63;0.47;;;17.50;93.80;;;;;;5092572;28;20169;-72
2021/06/18 02:48:13;;;;;;;0.50;0.50;;;17.30;93.90;;;;;;5092270;28;20197;-72
2021/06/18 02:50:44;;;;;;;1.73;0.50;;;17.20;94.10;;;;;;5093104;28;20235;-72
2021/06/18 02:53:49;;;;;;;0.87;0.50;;;17.40;93.90;;;;;;5095834;28;20231;-73
2021/06/18 02:56:44;;;;;;;0.57;0.57;;;17.60;94.00;;;;;;5060820;28;20194;-70
2021/06/18 02:59:58;;;;;;;1.07;0.60;;;17.60;94.20;;;;;;5092477;28;20185;-72
2021/06/18 03:02:32;;;;;;;0.93;0.50;;;17.90;93.60;;;;;;5088180;28;20218;-70
2021/06/18 03:05:02;;;;;;;1.03;0.50;;;18.20;92.90;;;;;;5092275;28;20174;-72
2021/06/18 03:07:32;;;;;;;0.30;0.30;;;18.50;93.10;;;;;;5092863;28;20174;-69
2021/06/18 03:10:03;;;;;;;0.43;0.30;;;18.60;91.80;;;;;;5088341;28;20183;-68
2021/06/18 03:12:33;;;;;;;0.40;0.40;;;18.60;91.40;;;;;;5091910;28;20178;-69
2021/06/18 03:15:08;;;;;;;0.87;0.43;;;18.70;91.10;;;;;;5092044;28;20210;-73
2021/06/18 03:17:40;;;;;;;0.90;0.50;;;18.80;90.80;;;;;;5093357;28;20284;-67
2021/06/18 03:20:12;;;;;;;0.77;0.40;;;19.00;90.70;;;;;;5096282;28;20174;-71
2021/06/18 03:22:40;;;;;;;1.43;0.40;;;19.10;90.70;;;;;;5095157;28;20207;-68
2021/06/18 03:25:09;;;;;;;2.87;0.40;;;19.30;90.60;;;;;;5102346;28;20189;-68
2021/06/18 03:27:39;;;;;;;0.43;0.40;;;19.30;90.30;;;;;;5112833;28;20656;-71
2021/06/18 03:30:08;;;;;;;3.23;0.80;;;19.10;90.40;;;;;;5096053;28;20267;-71
2021/06/18 03:32:38;;;;;;;0.37;0.37;;;19.00;89.90;;;;;;5095485;28;20233;-72
2021/06/18 03:35:07;;;;;;;0.30;0.30;;;18.60;90.30;;;;;;5096015;28;20626;-72
2021/06/18 03:37:35;;;;;;;0.80;0.33;;;18.80;90.50;;;;;;5102357;28;20189;-73
2021/06/18 03:40:03;;;;;;;0.50;0.30;;;18.90;90.30;;;;;;5115327;28;20173;-68
2021/06/18 03:42:32;;;;;;;2.67;0.40;;;18.90;89.00;;;;;;5095603;28;20200;-67
2021/06/18 03:45:02;;;;;;;1.80;0.40;;;18.90;89.40;;;;;;5095582;28;20186;-69
2021/06/18 03:47:30;;;;;;;0.73;0.40;;;19.00;87.20;;;;;;5095079;28;20206;-69
2021/06/18 03:49:58;;;;;;;3.40;0.40;;;19.20;87.10;;;;;;5095430;28;20214;-69
2021/06/18 03:52:26;;;;;;;0.97;0.50;;;19.10;85.80;;;;;;5094837;28;20581;-68
2021/06/18 03:54:54;;;;;;;1.07;0.40;;;19.10;86.00;;;;;;5109977;28;20182;-72
2021/06/18 03:57:22;;;;;;;0.43;0.40;;;19.20;85.00;;;;;;5095374;28;20668;-69
2021/06/18 03:59:50;;;;;;;0.60;0.50;;;19.00;86.00;;;;;;5095009;28;20193;-69
2021/06/18 04:02:19;;;;;;;0.97;0.50;;;19.00;86.00;;;;;;5094781;28;20206;-72
2021/06/18 04:04:48;;;;;;;0.30;0.30;;;19.10;85.80;;;;;;5095312;28;20206;-68
2021/06/18 04:07:15;;;;;;;0.60;0.30;;;19.30;85.50;;;;;;5095074;28;20485;-72
2021/06/18 04:09:43;;;;;;;0.30;0.30;;;19.50;85.70;;;;;;5106379;28;20227;-67
2021/06/18 04:12:13;;;;;;;0.30;0.30;;;19.40;84.00;;;;;;5095879;28;20189;-70
2021/06/18 04:14:40;;;;;;;2.70;0.53;;;19.10;84.70;;;;;;5093911;28;20323;-71
2021/06/18 04:17:08;;;;;;;1.07;0.37;;;19.20;84.60;;;;;;5094072;28;20221;-71
2021/06/18 04:19:38;;;;;;;2.30;0.40;;;19.20;84.50;;;;;;5100063;28;20178;-70
2021/06/18 04:22:06;;;;;;;0.43;0.40;;;19.20;83.20;;;;;;5094911;28;20170;-71
2021/06/18 04:24:35;;;;;;;0.40;0.30;;;19.00;83.10;;;;;;5093499;28;20556;-71
2021/06/18 04:27:02;;;;;;;1.30;0.50;;;19.00;84.10;;;;;;5090863;28;20178;-75
2021/06/18 04:29:29;;;;;;;1.53;0.47;;;19.30;83.90;;;;;;5091675;28;20265;-68
2021/06/18 04:31:57;;;;;;;0.40;0.40;;;19.40;83.10;;;;;;5094415;28;20201;-66
2021/06/18 04:34:24;;;;;;;1.60;0.50;;;19.50;80.90;;;;;;5093224;28;20656;-68
2021/06/18 04:36:52;;;;;;;0.47;0.40;;;19.80;81.00;;;;;;5094592;28;20236;-69
2021/06/18 04:39:19;;;;;;;1.70;0.40;;;20.30;80.80;;;;;;5094642;28;20186;-69
2021/06/18 04:41:47;;;;;;;0.30;0.30;;;20.10;80.50;;;;;;5094550;28;20224;-72
2021/06/18 04:44:14;;;;;;;0.40;0.40;;;20.40;81.10;;;;;;5094338;28;20214;-69
2021/06/18 04:46:41;;;;;;;1.47;0.40;;;20.30;80.10;;;;;;5094005;28;20178;-76
2021/06/18 04:49:09;;;;;;;0.30;0.30;;;20.50;80.60;;;;;;5093895;28;20625;-69
2021/06/18 04:51:36;;;;;;;0.30;0.30;;;20.40;80.30;;;;;;5092626;28;20197;-71
2021/06/18 04:54:04;;;;;;;0.60;0.40;;;20.30;81.60;;;;;;5092166;28;20186;-70
2021/06/18 04:56:31;;;;;;;0.30;0.30;;;20.40;80.90;;;;;;5093271;28;20174;-70
2021/06/18 04:59:00;;;;;;;0.77;0.40;;;20.30;80.80;;;;;;5093183;28;20175;-71
2021/06/18 05:01:27;;;;;;;0.30;0.30;;;20.20;80.80;;;;;;5091898;28;20265;-70
2021/06/18 05:03:54;;;;;;;0.60;0.30;;;20.00;81.30;;;;;;5092794;28;20270;-71
2021/06/18 05:06:22;;;;;;;0.60;0.40;;;20.30;80.40;;;;;;5092559;28;20236;-71
2021/06/18 05:08:49;;;;;;;0.83;0.50;;;19.60;82.20;;;;;;5092834;28;20217;-69
2021/06/18 05:11:20;;;;;;;0.37;0.37;;;19.10;84.20;;;;;;5093452;28;20183;-70
2021/06/18 05:13:47;;;;;;;0.30;0.30;;;18.80;85.90;;;;;;5093603;28;20571;-68
2021/06/18 05:16:15;;;;;;;0.53;0.40;;;18.30;86.70;;;;;;5073434;28;20218;-72
2021/06/18 05:18:42;;;;;;;1.13;0.40;;;18.10;87.80;;;;;;5086356;28;20201;-69
2021/06/18 05:21:13;;;;;;;0.30;0.30;;;17.90;87.70;;;;;;5093729;28;20196;-70
2021/06/18 05:23:40;;;;;;;0.63;0.50;;;18.10;87.40;;;;;;5093343;28;20218;-71
2021/06/18 05:26:07;;;;;;;0.50;0.50;;;18.50;87.20;;;;;;5093492;28;20186;-74
2021/06/18 05:28:35;;;;;;;1.23;0.50;;;18.50;86.20;;;;;;5093451;28;20243;-70
2021/06/18 05:31:02;;;;;;;1.93;0.70;;;18.40;85.60;;;;;;5093498;28;20569;-74
2021/06/18 05:33:30;;;;;;;2.30;0.50;;;18.30;86.10;;;;;;5091961;28;20275;-73
2021/06/18 05:35:57;;;;;;;0.50;0.40;;;18.50;86.10;;;;;;5092990;28;20186;-71
2021/06/18 05:38:25;;;;;;;1.63;0.50;;;18.20;86.90;;;;;;5093351;28;20176;-73
2021/06/18 05:40:53;;;;;;;0.40;0.40;;;17.90;87.60;;;;;;5092681;28;20189;-68
2021/06/18 05:43:20;;;;;;;0.77;0.40;;;17.70;88.60;;;;;;5093186;28;20371;-71
2021/06/18 05:45:48;;;;;;;1.17;0.50;;;17.60;89.40;;;;;;5102359;28;20632;-70
2021/06/18 05:48:15;;;;;;;0.83;0.50;;;17.50;90.00;;;;;;5093146;28;20181;-68
2021/06/18 05:50:45;;;;;;;1.00;0.50;;;17.40;90.30;;;;;;5097580;28;20245;-70
2021/06/18 05:53:13;;;;;;;0.73;0.40;;;17.30;90.60;;;;;;5100588;28;20321;-72
2021/06/18 05:55:40;;;;;;;3.90;0.40;;;17.30;90.70;;;;;;5093126;28;20170;-67
2021/06/18 05:58:07;;;;;;;0.50;0.50;;;17.20;91.30;;;;;;5093158;28;20177;-69
2021/06/18 06:00:35;;;;;;;2.53;0.60;;;17.20;91.20;;;;;;5086059;28;21057;-73
2021/06/18 06:03:02;;;;;;;0.70;0.50;;;17.20;91.40;;;;;;5092604;28;20241;-70
2021/06/18 06:05:30;;;;;;;1.43;0.50;;;17.20;91.60;;;;;;5092390;28;20210;-70
2021/06/18 06:07:57;;;;;;;0.60;0.60;;;17.00;91.60;;;;;;5092083;28;20212;-71
2021/06/18 06:10:25;;;;;;;0.50;0.40;;;17.00;91.80;;;;;;5092549;28;20184;-70
2021/06/18 06:12:55;;;;;;;0.50;0.50;;;17.00;92.10;;;;;;5092663;28;20242;-70
2021/06/18 06:15:23;;;;;;;4.13;0.60;;;16.90;92.50;;;;;;5092574;28;20186;-73
2021/06/18 06:17:50;;;;;;;0.73;0.50;;;16.90;92.40;;;;;;5089809;28;20188;-69
2021/06/18 06:20:18;;;;;;;1.37;0.50;;;16.80;92.30;;;;;;5092330;28;20189;-74
2021/06/18 06:22:46;;;;;;;0.97;0.70;;;16.80;92.40;;;;;;5091737;28;20204;-71
2021/06/18 06:25:13;;;;;;;0.70;0.60;;;16.80;92.60;;;;;;5092620;28;20306;-68
2021/06/18 06:27:41;;;;;;;0.73;0.47;;;16.70;92.60;;;;;;5090873;28;20184;-70
2021/06/18 06:30:09;;;;;;;0.80;0.50;;;16.70;92.50;;;;;;5086033;28;20593;-66
2021/06/18 06:32:36;;;;;;;0.83;0.50;;;16.60;92.60;;;;;;5091944;28;20229;-70
2021/06/18 06:35:04;;;;;;;2.40;0.70;;;16.60;92.60;;;;;;5092133;28;20177;-68
2021/06/18 06:37:31;;;;;;;0.50;0.50;;;16.60;92.90;;;;;;5098144;28;20649;-71
2021/06/18 06:39:58;;;;;;;2.53;0.60;;;16.50;93.00;;;;;;5092388;28;20236;-71
2021/06/18 06:42:26;;;;;;;0.50;0.40;;;16.50;93.00;;;;;;5092221;28;20202;-70
2021/06/18 06:44:53;;;;;;;0.60;0.50;;;16.50;93.00;;;;;;5091821;28;20181;-68
2021/06/18 06:47:21;;;;;;;0.80;0.67;;;16.40;93.30;;;;;;5090896;28;20201;-68
2021/06/18 06:49:48;;;;;;;1.10;0.67;;;16.40;93.30;;;;;;5080201;28;20545;-66
2021/06/18 06:52:16;;;;;;;0.40;0.40;;;16.40;93.40;;;;;;5091032;28;20538;-69
2021/06/18 06:54:43;;;;;;;0.87;0.60;;;16.40;93.20;;;;;;5092341;28;20185;-68
2021/06/18 06:57:11;;;;;;;1.77;0.50;;;16.30;93.50;;;;;;5094528;28;20623;-66
2021/06/18 06:59:39;;;;;;;1.00;0.70;;;16.30;93.40;;;;;;5096257;28;20240;-68
2021/06/18 07:02:06;;;;;;;1.53;0.63;;;16.30;93.40;;;;;;5091862;28;20187;-71
2021/06/18 07:04:35;;;;;;;1.93;0.77;;;16.30;93.80;;;;;;5088850;28;20188;-71
2021/06/18 07:07:02;;;;;;;1.10;0.77;;;16.30;93.70;;;;;;5096274;28;20696;-73
2021/06/18 07:09:29;;;;;;;0.97;0.70;;;16.30;93.70;;;;;;5095825;28;20272;-72
2021/06/18 07:11:57;;;;;;;0.83;0.67;;;16.20;93.90;;;;;;5096003;28;20261;-71
2021/06/18 07:14:27;;;;;;;0.87;0.67;;;16.20;93.80;;;;;;5098378;28;20205;-68
2021/06/18 07:16:55;;;;;;;1.30;0.97;;;16.10;93.80;;;;;;5100681;28;20240;-71
2021/06/18 07:19:22;;;;;;;1.17;0.67;;;16.20;93.90;;;;;;5096756;28;20269;-74
2021/06/18 07:21:49;;;;;;;2.47;0.83;;;16.10;93.90;;;;;;5097155;28;20178;-72
2021/06/18 07:24:17;;;;;;;1.00;0.90;;;16.10;94.20;;;;;;5095720;28;20277;-74
2021/06/18 07:26:45;;;;;;;1.70;0.93;;;16.10;94.70;;;;;;5096442;28;20175;-71
2021/06/18 07:29:12;;;;;;;3.37;0.93;;;16.00;95.00;;;;;;5092167;28;20520;-69
2021/06/18 07:31:39;;;;;;;1.07;0.60;;;15.90;95.00;;;;;;5088110;28;20183;-73
2021/06/18 07:34:07;;;;;;;1.03;0.60;;;15.90;95.30;;;;;;5094835;28;20578;-71
2021/06/18 07:36:34;;;;;;;0.60;0.60;;;15.90;95.40;;;;;;5095327;28;20197;-70
2021/06/18 07:39:01;;;;;;;1.03;0.80;;;15.90;95.10;;;;;;5095511;28;20172;-70
2021/06/18 07:41:30;;;;;;;1.00;0.60;;;15.90;94.90;;;;;;5095521;28;20661;-70
2021/06/18 07:43:57;;;;;;;1.60;0.80;;;15.90;95.10;;;;;;5088010;28;20210;-69
2021/06/18 07:46:26;;;;;;;1.50;1.00;;;16.00;95.30;;;;;;5093691;28;20526;-70
2021/06/18 07:48:54;;;;;;;1.40;1.23;;;15.90;95.10;;;;;;5094189;28;20186;-67
2021/06/18 07:51:22;;;;;;;1.53;1.10;;;15.90;95.20;;;;;;5094877;28;20198;-70
2021/06/18 07:53:49;;;;;;;2.20;1.00;;;16.00;95.30;;;;;;5094550;28;20185;-70
2021/06/18 07:56:28;;;;;;;1.60;1.07;;;16.00;95.30;;;;;;5094843;28;20174;-68
2021/06/18 07:58:55;;;;;;;1.47;1.10;;;15.90;95.40;;;;;;5095485;28;20189;-68
2021/06/18 08:01:23;;;;;;;1.67;0.90;;;15.90;95.10;;;;;;5090357;28;20610;-67
2021/06/18 08:03:50;;;;;;;1.47;0.87;;;15.90;95.30;;;;;;5093530;28;20210;-66
2021/06/18 08:06:18;;;;;;;4.67;0.97;;;15.90;95.00;;;;;;5094970;28;20206;-64
2021/06/18 08:08:46;;;;;;;4.03;1.00;;;15.90;95.00;;;;;;5094374;28;20179;-66
2021/06/18 08:11:13;;;;;;;2.17;1.20;;;15.90;95.50;;;;;;5089024;28;20179;-66
2021/06/18 08:13:41;;;;;;;3.23;1.40;;;15.80;96.30;;;;;;5091987;28;20262;-67
2021/06/18 08:16:08;;;;;;;5.37;1.20;;;15.70;97.90;;;;;;5091943;28;20221;-67
2021/06/18 08:18:38;;;;;;;2.13;0.90;;;15.40;99.90;;;;;;5092929;28;20191;-67
2021/06/18 08:21:09;;;;;;;2.80;0.77;;;15.10;99.90;;;;;;5093590;28;20183;-67
2021/06/18 08:23:38;;;;;;;0.70;0.60;;;14.80;99.90;;;;;;5093186;28;20261;-67
2021/06/18 08:26:05;;;;;;;1.63;0.80;;;14.60;99.90;;;;;;5092404;28;20180;-69
2021/06/18 08:28:33;;;;;;;2.23;0.80;;;14.50;99.90;;;;;;5090352;28;20550;-71
2021/06/18 08:31:04;;;;;;;1.63;0.70;;;14.40;99.90;;;;;;5082516;28;20175;-69
2021/06/18 08:33:34;;;;;;;1.70;0.83;;;14.30;99.90;;;;;;5102598;28;20286;-68
2021/06/18 08:36:02;;;;;;;0.97;0.70;;;14.20;99.90;;;;;;5091945;28;20179;-67
2021/06/18 08:38:30;;;;;;;0.80;0.67;;;14.00;99.90;;;;;;5090516;28;20701;-68
2021/06/18 08:40:57;;;;;;;0.63;0.63;;;13.90;99.90;;;;;;5093251;28;20278;-68
2021/06/18 08:43:25;;;;;;;1.67;0.70;;;13.70;99.90;;;;;;5093796;28;20756;-68
2021/06/18 08:45:55;;;;;;;1.30;1.10;;;13.60;99.90;;;;;;5091739;28;20197;-68
2021/06/18 08:48:22;;;;;;;1.33;0.70;;;13.50;99.90;;;;;;5091892;28;20193;-67
2021/06/18 08:50:49;;;;;;;2.40;0.77;;;13.50;99.90;;;;;;5088945;28;20182;-67
2021/06/18 08:53:18;;;;;;;0.73;0.60;;;13.50;99.90;;;;;;5089439;28;20182;-66
2021/06/18 08:55:46;;;;;;;0.80;0.80;;;13.50;99.90;;;;;;5089511;28;20649;-68
2021/06/18 08:58:13;;;;;;;0.83;0.80;;;13.50;99.90;;;;;;5091486;28;20182;-68
2021/06/18 09:00:41;;;;;;;0.87;0.70;;;13.60;99.90;;;;;;5091744;28;20544;-68
2021/06/18 09:03:47;;;;;;;2.47;1.70;;;13.60;99.90;;;;;;5086652;28;20271;-68
2021/06/18 09:06:30;;;;;;;1.30;0.90;;;13.50;99.90;;;;;;5011222;28;20228;-66
2021/06/18 09:09:22;;;;;;;1.13;0.80;;;13.50;99.90;;;;;;5080773;28;20580;-67
2021/06/18 09:11:51;;;;;;;0.80;0.70;;;13.40;99.90;;;;;;5093929;28;20698;-66
2021/06/18 09:14:23;;;;;;;3.63;0.90;;;13.30;99.90;;;;;;5092796;28;20179;-68
2021/06/18 09:17:22;;;;;;;2.53;0.87;;;13.30;99.90;;;;;;5093325;28;20175;-67
2021/06/18 09:19:54;;;;;;;1.10;0.70;;;13.20;99.90;;;;;;5090937;28;20265;-71
2021/06/18 09:22:41;;;;;;;1.73;1.10;;;13.20;99.90;;;;;;5093340;28;20170;-68
2021/06/18 09:25:16;;;;;;;1.23;0.80;;;13.20;99.90;;;;;;5093507;28;20274;-70
2021/06/18 09:27:51;;;;;;;3.83;1.43;;;13.10;99.90;;;;;;5093133;28;25497;-67
2021/06/18 09:30:30;;;;;;;4.07;1.70;;;13.00;99.90;;;;;;5093050;28;20178;-67
2021/06/18 09:33:00;;;;;;;2.73;1.53;;;12.90;99.90;;;;;;5093409;28;20217;-66
2021/06/18 09:35:29;;;;;;;2.47;1.50;;;12.80;99.90;;;;;;5092814;28;20175;-70
2021/06/18 09:38:03;;;;;;;1.33;1.13;;;12.70;99.90;;;;;;5093383;28;20175;-67
2021/06/18 09:40:31;;;;;;;1.77;1.40;;;12.70;99.90;;;;;;5093186;28;20185;-69
2021/06/18 09:43:00;;;;;;;3.43;1.20;;;12.60;99.90;;;;;;5092959;28;20696;-68
2021/06/18 09:45:31;;;;;;;2.73;1.60;;;12.60;99.90;;;;;;5092868;28;20188;-68
2021/06/18 09:48:09;;;;;;;1.43;1.00;;;12.60;99.90;;;;;;5093103;28;20171;-67
2021/06/18 09:50:39;;;;;;;3.13;1.30;;;12.50;99.90;;;;;;5086357;28;20522;-68
2021/06/18 09:53:22;;;;;;;1.30;1.00;;;12.40;99.90;;;;;;5092819;28;20189;-66
2021/06/18 09:56:07;;;;;;;2.63;1.20;;;12.30;99.90;;;;;;5091834;28;20189;-67
2021/06/18 09:58:52;;;;;;;3.20;1.50;;;12.30;99.90;;;;;;5084320;28;20186;-68
2021/06/18 10:01:32;;;;;;;2.47;1.53;;;12.20;99.90;;;;;;5083539;28;20250;-68
2021/06/18 10:04:14;;;;;;;3.63;1.50;;;12.20;99.90;;;;;;5092829;28;20296;-66
2021/06/18 10:06:44;;;;;;;2.00;1.50;;;12.10;99.90;;;;;;5092920;28;20179;-67
2021/06/18 10:09:15;;;;;;;3.53;1.47;;;12.10;99.90;;;;;;5092550;28;20187;-68
2021/06/18 10:11:47;;;;;;;3.10;1.53;;;12.00;99.90;;;;;;5091093;28;20239;-69
2021/06/18 10:14:16;;;;;;;5.53;1.50;;;11.90;99.90;;;;;;5092627;28;20187;-69
2021/06/18 10:16:43;;;;;;;5.00;1.70;;;11.80;99.90;;;;;;5092354;28;20178;-66
2021/06/18 10:19:11;;;;;;;2.70;1.57;;;11.70;99.90;;;;;;5091159;28;20667;-70
2021/06/18 10:22:06;;;;;;;2.13;1.30;;;11.70;99.90;;;;;;5090782;28;20179;-67
2021/06/18 10:24:38;;;;;;;3.87;1.73;;;11.60;99.90;;;;;;5082486;28;20214;-68
2021/06/18 10:27:08;;;;;;;2.57;1.60;;;11.50;99.90;;;;;;5088838;28;20260;-69
2021/06/18 10:29:39;;;;;;;2.53;1.70;;;11.50;99.90;;;;;;5090166;28;20976;-69
2021/06/18 10:32:28;;;;;;;4.10;1.77;;;11.50;99.90;;;;;;5092009;28;20955;-68
2021/06/18 10:34:57;;;;;;;3.63;1.70;;;11.40;99.90;;;;;;5091984;28;20297;-69
2021/06/18 10:37:26;;;;;;;2.03;1.60;;;11.30;99.90;;;;;;5091780;28;20392;-68
2021/06/18 10:40:04;;;;;;;1.70;1.37;;;11.40;99.90;;;;;;5092392;28;20209;-67
2021/06/18 10:42:31;;;;;;;2.63;1.60;;;11.30;99.90;;;;;;5092220;28;20526;-69
2021/06/18 10:45:00;;;;;;;2.20;1.50;;;11.30;99.90;;;;;;5092570;28;20235;-69
2021/06/18 10:47:31;;;;;;;2.07;1.70;;;11.30;99.90;;;;;;5091264;28;20695;-67
2021/06/18 10:50:00;;;;;;;2.93;1.30;;;11.30;99.90;;;;;;5092294;28;20192;-68
2021/06/18 10:52:38;;;;;;;5.63;1.83;;;11.40;99.90;;;;;;5074987;28;20198;-68
2021/06/18 10:55:06;;;;;;;2.37;1.50;;;11.30;99.90;;;;;;5092197;28;20178;-68
2021/06/18 10:57:36;;;;;;;2.20;1.53;;;11.30;99.90;;;;;;5092375;28;20188;-69
2021/06/18 11:00:12;;;;;;;7.50;1.63;;;11.40;99.90;;;;;;5092403;28;20211;-70
2021/06/18 11:02:41;;;;;;;1.67;1.53;;;11.40;99.90;;;;;;5091888;28;20288;-68
2021/06/18 11:05:08;;;;;;;2.27;1.73;;;11.40;99.90;;;;;;5092578;28;20177;-70
2021/06/18 11:07:42;;;;;;;4.87;1.87;;;11.30;99.90;;;;;;5077715;28;20174;-72
2021/06/18 11:10:27;;;;;;;3.13;1.63;;;11.40;99.90;;;;;;5092270;28;20284;-68
2021/06/18 11:13:18;;;;;;;1.77;1.50;;;11.40;99.90;;;;;;5091313;28;20178;-74
2021/06/18 11:15:48;;;;;;;1.57;1.47;;;11.40;99.90;;;;;;5091287;28;20190;-76
2021/06/18 11:18:37;;;;;;;2.67;1.87;;;11.40;99.90;;;;;;5092023;28;20576;-74
2021/06/18 11:21:07;;;;;;;4.33;1.60;;;11.40;99.90;;;;;;5092424;28;20217;-77
2021/06/18 11:23:36;;;;;;;4.47;2.03;;;11.40;99.90;;;;;;5092058;28;20199;-76
2021/06/18 11:26:06;;;;;;;3.27;1.83;;;11.50;99.90;;;;;;5091997;28;20178;-68
2021/06/18 11:28:38;;;;;;;3.67;1.87;;;11.40;99.90;;;;;;5092201;28;20179;-66
2021/06/18 11:31:16;;;;;;;1.87;1.40;;;11.40;99.90;;;;;;5091538;28;20240;-67
2021/06/18 11:33:45;;;;;;;2.40;1.50;;;11.50;99.90;;;;;;5092147;28;20694;-68
2021/06/18 11:36:22;;;;;;;6.17;1.80;;;11.40;99.90;;;;;;5091974;28;20228;-69
2021/06/18 11:39:04;;;;;;;4.03;1.70;;;11.40;99.90;;;;;;5093663;28;20261;-74
2021/06/18 11:41:45;;;;;;;2.57;1.60;;;11.50;99.90;;;;;;5096041;28;20205;-71
2021/06/18 11:44:16;;;;;;;3.60;1.83;;;11.50;99.90;;;;;;5095642;28;20264;-77
2021/06/18 11:46:44;;;;;;;2.73;1.80;;;11.40;99.90;;;;;;5095389;28;20178;-75
2021/06/18 11:49:20;;;;;;;3.77;1.80;;;11.50;99.90;;;;;;5095872;28;20600;-73
2021/06/18 11:51:49;;;;;;;2.63;1.60;;;11.50;99.90;;;;;;5093919;28;20232;-78
2021/06/18 11:54:32;;;;;;;5.37;1.70;;;11.50;99.90;;;;;;5093989;28;20270;-78
2021/06/18 11:57:20;;;;;;;2.87;1.67;;;11.50;99.90;;;;;;5095649;28;20193;-72
2021/06/18 11:59:57;;;;;;;3.20;1.77;;;11.50;99.90;;;;;;5095468;28;20186;-71
2021/06/18 12:02:33;;;;;;;2.70;1.60;;;11.50;99.90;;;;;;5093422;28;20185;-68
2021/06/18 12:05:12;;;;;;;3.60;1.50;;;11.60;99.90;;;;;;5095615;28;20189;-69
2021/06/18 12:07:40;;;;;;;2.67;1.80;;;11.60;99.90;;;;;;5095207;28;20166;-66
2021/06/18 12:10:09;;;;;;;3.03;1.60;;;11.60;99.90;;;;;;5095118;28;20194;-68
2021/06/18 12:12:47;;;;;;;2.63;2.03;;;11.70;99.90;;;;;;5093803;28;20174;-69
2021/06/18 12:15:21;;;;;;;3.10;2.40;;;11.70;99.90;;;;;;5092904;28;20188;-69
2021/06/18 12:17:51;;;;;;;2.70;1.90;;;11.70;99.90;;;;;;5094498;28;20178;-68
2021/06/18 12:20:38;;;;;;;3.80;2.10;;;11.70;99.90;;;;;;5095040;28;20182;-78
2021/06/18 12:23:08;;;;;;;1.93;1.57;;;11.80;99.90;;;;;;5094069;28;20665;-69
2021/06/18 12:25:36;;;;;;;2.40;1.60;;;11.80;99.90;;;;;;5094679;28;20186;-67
2021/06/18 12:28:04;;;;;;;3.53;1.47;;;11.80;99.90;;;;;;5094538;28;20228;-70
2021/06/18 12:30:37;;;;;;;7.83;1.90;;;11.80;99.90;;;;;;5090291;28;20187;-74
2021/06/18 12:33:07;;;;;;;2.50;1.73;;;11.90;99.90;;;;;;5094260;28;20262;-68
2021/06/18 12:35:42;;;;;;;2.43;1.90;;;11.90;99.90;;;;;;5093768;28;20196;-69
2021/06/18 12:38:12;;;;;;;3.43;2.20;;;11.90;99.90;;;;;;5093325;28;20189;-67
2021/06/18 12:40:45;;;;;;;3.23;1.97;;;11.90;99.90;;;;;;5094178;28;20183;-69
2021/06/18 12:43:14;;;;;;;4.00;1.73;;;11.90;99.90;;;;;;5094310;28;20222;-69
2021/06/18 12:45:44;;;;;;;4.17;1.80;;;11.90;99.90;;;;;;5093962;28;20174;-68
2021/06/18 12:48:15;;;;;;;4.67;2.60;;;11.90;99.90;;;;;;5094625;28;20265;-67
2021/06/18 12:51:04;;;;;;;2.57;2.23;;;11.90;99.90;;;;;;5093930;28;20253;-67
2021/06/18 12:53:41;;;;;;;3.87;2.20;;;12.00;99.90;;;;;;5093860;28;20170;-71
2021/06/18 12:56:13;;;;;;;2.30;1.70;;;12.00;99.90;;;;;;5093998;28;20199;-67
2021/06/18 12:58:41;;;;;;;2.63;1.77;;;12.00;99.90;;;;;;5093913;28;20261;-67
2021/06/18 13:01:09;;;;;;;3.20;1.87;;;12.10;99.90;;;;;;5093862;28;20186;-66
2021/06/18 13:04:02;;;;;;;1.47;1.27;;;12.00;99.90;;;;;;5093914;28;20222;-66
2021/06/18 13:06:39;;;;;;;1.87;1.40;;;12.10;99.90;;;;;;5081791;28;20267;-66
2021/06/18 13:09:06;;;;;;;2.07;1.17;;;12.20;99.90;;;;;;5091644;28;20209;-69